sensor_id;sensor_type;location;lat;lon;timestamp;P1;durP1;ratioP1;P2;durP2;ratioP2
61336;SDS011;47212;41.326;2.104;2022-10-22T00:02:41;11.13;;;5.13;;
61336;SDS011;47212;41.326;2.104;2022-10-22T00:07:44;12.70;;;4.85;;
61336;SDS011;47212;41.326;2.104;2022-10-22T00:12:46;7.47;;;3.92;;
61336;SDS011;47212;41.326;2.104;2022-10-22T00:17:48;10.38;;;4.60;;
61336;SDS011;47212;41.326;2.104;2022-10-22T00:22:50;10.48;;;5.05;;
61336;SDS011;47212;41.326;2.104;2022-10-22T00:27:57;8.90;;;4.33;;
61336;SDS011;47212;41.326;2.104;2022-10-22T00:32:59;9.70;;;5.20;;
61336;SDS011;47212;41.326;2.104;2022-10-22T00:38:01;9.90;;;4.45;;
61336;SDS011;47212;41.326;2.104;2022-10-22T00:43:03;9.45;;;4.20;;
61336;SDS011;47212;41.326;2.104;2022-10-22T00:48:10;13.25;;;4.97;;
61336;SDS011;47212;41.326;2.104;2022-10-22T00:53:19;8.65;;;5.00;;
61336;SDS011;47212;41.326;2.104;2022-10-22T00:58:34;14.90;;;4.72;;
61336;SDS011;47212;41.326;2.104;2022-10-22T01:05:12;9.13;;;4.28;;
61336;SDS011;47212;41.326;2.104;2022-10-22T01:31:05;8.68;;;3.20;;
61336;SDS011;47212;41.326;2.104;2022-10-22T01:36:11;6.70;;;3.40;;
61336;SDS011;47212;41.326;2.104;2022-10-22T01:41:15;7.18;;;3.65;;
61336;SDS011;47212;41.326;2.104;2022-10-22T01:46:17;7.57;;;2.95;;
61336;SDS011;47212;41.326;2.104;2022-10-22T01:56:40;4.85;;;2.75;;
61336;SDS011;47212;41.326;2.104;2022-10-22T02:02:05;4.40;;;2.50;;
61336;SDS011;47212;41.326;2.104;2022-10-22T02:07:32;5.72;;;3.13;;
61336;SDS011;47212;41.326;2.104;2022-10-22T02:12:38;8.95;;;3.30;;
61336;SDS011;47212;41.326;2.104;2022-10-22T02:17:44;6.25;;;3.25;;
61336;SDS011;47212;41.326;2.104;2022-10-22T02:22:47;5.93;;;3.20;;
61336;SDS011;47212;41.326;2.104;2022-10-22T02:27:51;4.70;;;2.75;;
61336;SDS011;47212;41.326;2.104;2022-10-22T02:33:14;5.78;;;3.30;;
61336;SDS011;47212;41.326;2.104;2022-10-22T02:38:22;5.28;;;2.95;;
61336;SDS011;47212;41.326;2.104;2022-10-22T02:43:27;5.60;;;3.08;;
61336;SDS011;47212;41.326;2.104;2022-10-22T02:48:30;4.88;;;2.75;;
61336;SDS011;47212;41.326;2.104;2022-10-22T02:53:32;6.78;;;3.25;;
61336;SDS011;47212;41.326;2.104;2022-10-22T02:58:34;5.35;;;3.00;;
61336;SDS011;47212;41.326;2.104;2022-10-22T03:07:23;7.03;;;3.25;;
61336;SDS011;47212;41.326;2.104;2022-10-22T03:12:25;6.93;;;2.88;;
61336;SDS011;47212;41.326;2.104;2022-10-22T03:17:27;7.47;;;2.60;;
61336;SDS011;47212;41.326;2.104;2022-10-22T03:22:29;5.47;;;3.03;;
61336;SDS011;47212;41.326;2.104;2022-10-22T03:27:35;6.85;;;2.95;;
61336;SDS011;47212;41.326;2.104;2022-10-22T03:32:39;5.65;;;3.13;;
61336;SDS011;47212;41.326;2.104;2022-10-22T03:37:41;8.98;;;3.47;;
61336;SDS011;47212;41.326;2.104;2022-10-22T03:42:44;7.25;;;3.70;;
61336;SDS011;47212;41.326;2.104;2022-10-22T03:47:46;7.75;;;3.30;;
61336;SDS011;47212;41.326;2.104;2022-10-22T03:52:48;6.60;;;3.17;;
61336;SDS011;47212;41.326;2.104;2022-10-22T03:58:19;5.70;;;3.03;;
61336;SDS011;47212;41.326;2.104;2022-10-22T04:03:21;10.27;;;3.35;;
61336;SDS011;47212;41.326;2.104;2022-10-22T04:08:23;7.57;;;3.45;;
61336;SDS011;47212;41.326;2.104;2022-10-22T04:13:25;6.57;;;3.20;;
61336;SDS011;47212;41.326;2.104;2022-10-22T04:18:27;7.03;;;3.83;;
61336;SDS011;47212;41.326;2.104;2022-10-22T04:23:29;6.25;;;3.38;;
61336;SDS011;47212;41.326;2.104;2022-10-22T04:28:32;8.77;;;3.33;;
61336;SDS011;47212;41.326;2.104;2022-10-22T04:33:37;8.57;;;3.65;;
61336;SDS011;47212;41.326;2.104;2022-10-22T04:38:39;5.57;;;3.05;;
61336;SDS011;47212;41.326;2.104;2022-10-22T04:43:43;7.30;;;3.28;;
61336;SDS011;47212;41.326;2.104;2022-10-22T04:48:45;6.88;;;3.42;;
61336;SDS011;47212;41.326;2.104;2022-10-22T04:53:48;6.55;;;3.47;;
61336;SDS011;47212;41.326;2.104;2022-10-22T04:58:54;7.40;;;3.58;;
61336;SDS011;47212;41.326;2.104;2022-10-22T05:04:01;8.05;;;3.55;;
61336;SDS011;47212;41.326;2.104;2022-10-22T05:09:09;6.30;;;2.97;;
61336;SDS011;47212;41.326;2.104;2022-10-22T05:14:20;8.88;;;4.20;;
61336;SDS011;47212;41.326;2.104;2022-10-22T05:19:25;5.93;;;3.25;;
61336;SDS011;47212;41.326;2.104;2022-10-22T05:24:29;9.52;;;3.35;;
61336;SDS011;47212;41.326;2.104;2022-10-22T05:29:34;5.40;;;2.90;;
61336;SDS011;47212;41.326;2.104;2022-10-22T05:34:36;3.33;;;2.35;;
61336;SDS011;47212;41.326;2.104;2022-10-22T05:39:38;4.00;;;2.42;;
61336;SDS011;47212;41.326;2.104;2022-10-22T05:44:42;4.68;;;2.72;;
61336;SDS011;47212;41.326;2.104;2022-10-22T05:49:44;7.90;;;3.17;;
61336;SDS011;47212;41.326;2.104;2022-10-22T05:54:45;9.05;;;2.78;;
61336;SDS011;47212;41.326;2.104;2022-10-22T05:59:47;6.60;;;2.90;;
61336;SDS011;47212;41.326;2.104;2022-10-22T06:04:50;5.78;;;2.90;;
61336;SDS011;47212;41.326;2.104;2022-10-22T06:09:52;6.03;;;3.67;;
61336;SDS011;47212;41.326;2.104;2022-10-22T06:14:55;7.25;;;3.83;;
61336;SDS011;47212;41.326;2.104;2022-10-22T06:19:57;12.63;;;3.65;;
61336;SDS011;47212;41.326;2.104;2022-10-22T06:25:03;6.57;;;3.47;;
61336;SDS011;47212;41.326;2.104;2022-10-22T06:30:07;6.93;;;3.60;;
61336;SDS011;47212;41.326;2.104;2022-10-22T06:35:12;5.95;;;3.17;;
61336;SDS011;47212;41.326;2.104;2022-10-22T06:40:14;14.63;;;7.50;;
61336;SDS011;47212;41.326;2.104;2022-10-22T06:45:16;17.88;;;10.48;;
61336;SDS011;47212;41.326;2.104;2022-10-22T06:50:19;17.50;;;11.27;;
61336;SDS011;47212;41.326;2.104;2022-10-22T06:55:21;16.63;;;10.93;;
61336;SDS011;47212;41.326;2.104;2022-10-22T07:00:23;15.85;;;9.82;;
61336;SDS011;47212;41.326;2.104;2022-10-22T07:05:25;10.27;;;7.50;;
61336;SDS011;47212;41.326;2.104;2022-10-22T07:10:27;13.23;;;6.82;;
61336;SDS011;47212;41.326;2.104;2022-10-22T07:15:31;14.38;;;7.00;;
61336;SDS011;47212;41.326;2.104;2022-10-22T07:20:33;12.95;;;6.63;;
61336;SDS011;47212;41.326;2.104;2022-10-22T07:25:35;12.10;;;7.32;;
61336;SDS011;47212;41.326;2.104;2022-10-22T07:30:37;12.02;;;6.50;;
61336;SDS011;47212;41.326;2.104;2022-10-22T07:35:40;12.02;;;6.50;;
61336;SDS011;47212;41.326;2.104;2022-10-22T07:40:42;16.98;;;9.38;;
61336;SDS011;47212;41.326;2.104;2022-10-22T07:45:45;18.38;;;8.82;;
61336;SDS011;47212;41.326;2.104;2022-10-22T07:50:49;14.57;;;9.50;;
61336;SDS011;47212;41.326;2.104;2022-10-22T07:55:52;21.80;;;9.48;;
61336;SDS011;47212;41.326;2.104;2022-10-22T08:00:58;14.45;;;8.45;;
61336;SDS011;47212;41.326;2.104;2022-10-22T08:06:03;14.73;;;8.93;;
61336;SDS011;47212;41.326;2.104;2022-10-22T08:11:08;18.70;;;10.10;;
61336;SDS011;47212;41.326;2.104;2022-10-22T08:16:10;15.38;;;9.95;;
61336;SDS011;47212;41.326;2.104;2022-10-22T08:21:16;22.55;;;11.65;;
61336;SDS011;47212;41.326;2.104;2022-10-22T08:26:18;15.27;;;8.77;;
61336;SDS011;47212;41.326;2.104;2022-10-22T08:31:29;11.77;;;7.22;;
61336;SDS011;47212;41.326;2.104;2022-10-22T08:36:31;13.00;;;5.80;;
61336;SDS011;47212;41.326;2.104;2022-10-22T08:41:35;10.95;;;5.50;;
61336;SDS011;47212;41.326;2.104;2022-10-22T08:47:04;13.77;;;6.72;;
61336;SDS011;47212;41.326;2.104;2022-10-22T08:57:48;10.85;;;7.28;;
61336;SDS011;47212;41.326;2.104;2022-10-22T09:08:17;18.38;;;10.63;;
61336;SDS011;47212;41.326;2.104;2022-10-22T09:13:21;28.83;;;12.65;;
61336;SDS011;47212;41.326;2.104;2022-10-22T09:29:16;15.80;;;9.68;;
61336;SDS011;47212;41.326;2.104;2022-10-22T09:34:25;14.23;;;8.93;;
61336;SDS011;47212;41.326;2.104;2022-10-22T09:39:32;13.88;;;7.43;;
61336;SDS011;47212;41.326;2.104;2022-10-22T09:44:40;14.55;;;6.72;;
61336;SDS011;47212;41.326;2.104;2022-10-22T09:49:49;9.35;;;5.60;;
61336;SDS011;47212;41.326;2.104;2022-10-22T09:55:15;7.85;;;4.63;;
61336;SDS011;47212;41.326;2.104;2022-10-22T10:00:20;7.72;;;4.88;;
61336;SDS011;47212;41.326;2.104;2022-10-22T10:05:27;10.38;;;5.55;;
61336;SDS011;47212;41.326;2.104;2022-10-22T10:10:45;10.40;;;5.95;;
61336;SDS011;47212;41.326;2.104;2022-10-22T10:36:49;7.50;;;3.33;;
61336;SDS011;47212;41.326;2.104;2022-10-22T10:58:37;5.88;;;2.38;;
61336;SDS011;47212;41.326;2.104;2022-10-22T11:09:07;5.63;;;2.28;;
61336;SDS011;47212;41.326;2.104;2022-10-22T11:14:28;5.18;;;1.98;;
61336;SDS011;47212;41.326;2.104;2022-10-22T11:25:13;4.03;;;2.05;;
61336;SDS011;47212;41.326;2.104;2022-10-22T11:30:24;4.47;;;2.33;;
61336;SDS011;47212;41.326;2.104;2022-10-22T11:35:31;4.28;;;1.98;;
61336;SDS011;47212;41.326;2.104;2022-10-22T11:51:28;3.97;;;1.95;;
61336;SDS011;47212;41.326;2.104;2022-10-22T11:56:36;6.88;;;4.60;;
61336;SDS011;47212;41.326;2.104;2022-10-22T12:01:40;3.42;;;2.10;;
61336;SDS011;47212;41.326;2.104;2022-10-22T12:06:52;3.03;;;1.50;;
61336;SDS011;47212;41.326;2.104;2022-10-22T12:12:02;4.88;;;1.77;;
61336;SDS011;47212;41.326;2.104;2022-10-22T12:17:13;4.72;;;1.90;;
61336;SDS011;47212;41.326;2.104;2022-10-22T12:22:24;8.27;;;7.13;;
61336;SDS011;47212;41.326;2.104;2022-10-22T12:27:37;5.55;;;3.28;;
61336;SDS011;47212;41.326;2.104;2022-10-22T12:32:55;2.58;;;1.88;;
61336;SDS011;47212;41.326;2.104;2022-10-22T12:38:12;2.45;;;1.30;;
61336;SDS011;47212;41.326;2.104;2022-10-22T12:43:17;1.90;;;0.90;;
61336;SDS011;47212;41.326;2.104;2022-10-22T12:48:22;2.15;;;1.33;;
61336;SDS011;47212;41.326;2.104;2022-10-22T12:58:39;1.20;;;1.10;;
61336;SDS011;47212;41.326;2.104;2022-10-22T13:05:01;3.00;;;1.60;;
61336;SDS011;47212;41.326;2.104;2022-10-22T13:14:42;2.72;;;1.77;;
61336;SDS011;47212;41.326;2.104;2022-10-22T13:24:54;3.65;;;1.65;;
61336;SDS011;47212;41.326;2.104;2022-10-22T13:30:00;2.70;;;1.60;;
61336;SDS011;47212;41.326;2.104;2022-10-22T13:35:13;2.45;;;1.10;;
61336;SDS011;47212;41.326;2.104;2022-10-22T13:40:19;1.73;;;1.02;;
61336;SDS011;47212;41.326;2.104;2022-10-22T13:45:21;2.55;;;1.20;;
61336;SDS011;47212;41.326;2.104;2022-10-22T13:50:24;4.03;;;2.33;;
61336;SDS011;47212;41.326;2.104;2022-10-22T13:55:26;3.50;;;1.40;;
61336;SDS011;47212;41.326;2.104;2022-10-22T14:00:30;3.10;;;1.25;;
61336;SDS011;47212;41.326;2.104;2022-10-22T14:05:34;2.33;;;1.20;;
61336;SDS011;47212;41.326;2.104;2022-10-22T14:10:41;2.20;;;1.30;;
61336;SDS011;47212;41.326;2.104;2022-10-22T14:15:44;2.28;;;1.15;;
61336;SDS011;47212;41.326;2.104;2022-10-22T14:20:48;1.60;;;1.05;;
61336;SDS011;47212;41.326;2.104;2022-10-22T14:25:53;1.90;;;0.95;;
61336;SDS011;47212;41.326;2.104;2022-10-22T14:30:58;2.10;;;1.00;;
61336;SDS011;47212;41.326;2.104;2022-10-22T14:36:06;1.15;;;0.95;;
61336;SDS011;47212;41.326;2.104;2022-10-22T14:41:17;1.40;;;0.90;;
61336;SDS011;47212;41.326;2.104;2022-10-22T14:46:21;1.13;;;1.00;;
61336;SDS011;47212;41.326;2.104;2022-10-22T14:51:23;2.03;;;1.10;;
61336;SDS011;47212;41.326;2.104;2022-10-22T14:56:25;2.20;;;1.15;;
61336;SDS011;47212;41.326;2.104;2022-10-22T15:01:27;2.42;;;1.00;;
61336;SDS011;47212;41.326;2.104;2022-10-22T15:06:29;3.17;;;1.00;;
61336;SDS011;47212;41.326;2.104;2022-10-22T15:11:33;7.75;;;4.97;;
61336;SDS011;47212;41.326;2.104;2022-10-22T15:16:35;3.97;;;2.30;;
61336;SDS011;47212;41.326;2.104;2022-10-22T15:21:37;2.28;;;1.40;;
61336;SDS011;47212;41.326;2.104;2022-10-22T15:26:40;3.20;;;1.30;;
61336;SDS011;47212;41.326;2.104;2022-10-22T15:31:56;2.08;;;1.20;;
61336;SDS011;47212;41.326;2.104;2022-10-22T15:37:00;2.55;;;1.20;;
61336;SDS011;47212;41.326;2.104;2022-10-22T15:42:08;2.08;;;1.20;;
61336;SDS011;47212;41.326;2.104;2022-10-22T15:47:10;1.75;;;1.00;;
61336;SDS011;47212;41.326;2.104;2022-10-22T15:52:12;6.72;;;5.82;;
61336;SDS011;47212;41.326;2.104;2022-10-22T15:57:14;5.63;;;3.55;;
61336;SDS011;47212;41.326;2.104;2022-10-22T16:02:16;2.05;;;1.45;;
61336;SDS011;47212;41.326;2.104;2022-10-22T16:07:18;1.73;;;0.90;;
61336;SDS011;47212;41.326;2.104;2022-10-22T16:12:31;1.40;;;0.88;;
61336;SDS011;47212;41.326;2.104;2022-10-22T16:17:33;2.47;;;1.25;;
61336;SDS011;47212;41.326;2.104;2022-10-22T16:22:35;1.75;;;1.00;;
61336;SDS011;47212;41.326;2.104;2022-10-22T16:27:38;3.08;;;0.90;;
61336;SDS011;47212;41.326;2.104;2022-10-22T16:32:40;2.30;;;0.98;;
61336;SDS011;47212;41.326;2.104;2022-10-22T16:37:43;1.15;;;0.90;;
61336;SDS011;47212;41.326;2.104;2022-10-22T16:42:45;1.83;;;1.00;;
61336;SDS011;47212;41.326;2.104;2022-10-22T16:47:47;1.02;;;0.93;;
61336;SDS011;47212;41.326;2.104;2022-10-22T16:52:50;1.10;;;0.82;;
61336;SDS011;47212;41.326;2.104;2022-10-22T16:57:52;2.17;;;1.08;;
61336;SDS011;47212;41.326;2.104;2022-10-22T17:02:54;3.75;;;1.05;;
61336;SDS011;47212;41.326;2.104;2022-10-22T17:07:56;1.85;;;1.00;;
61336;SDS011;47212;41.326;2.104;2022-10-22T17:12:58;2.63;;;1.13;;
61336;SDS011;47212;41.326;2.104;2022-10-22T17:18:03;1.80;;;1.20;;
61336;SDS011;47212;41.326;2.104;2022-10-22T17:23:09;2.75;;;1.27;;
61336;SDS011;47212;41.326;2.104;2022-10-22T17:28:11;4.43;;;1.25;;
61336;SDS011;47212;41.326;2.104;2022-10-22T17:33:13;3.85;;;1.40;;
61336;SDS011;47212;41.326;2.104;2022-10-22T17:38:15;4.68;;;1.90;;
61336;SDS011;47212;41.326;2.104;2022-10-22T17:43:20;3.90;;;1.55;;
61336;SDS011;47212;41.326;2.104;2022-10-22T17:53:54;2.42;;;1.08;;
61336;SDS011;47212;41.326;2.104;2022-10-22T17:58:57;2.17;;;1.40;;
61336;SDS011;47212;41.326;2.104;2022-10-22T18:04:02;0.80;;;0.80;;
61336;SDS011;47212;41.326;2.104;2022-10-22T18:09:07;2.08;;;1.10;;
61336;SDS011;47212;41.326;2.104;2022-10-22T18:14:16;4.85;;;1.23;;
61336;SDS011;47212;41.326;2.104;2022-10-22T18:19:23;1.60;;;1.20;;
61336;SDS011;47212;41.326;2.104;2022-10-22T18:24:35;2.88;;;1.83;;
61336;SDS011;47212;41.326;2.104;2022-10-22T18:29:37;4.10;;;1.77;;
61336;SDS011;47212;41.326;2.104;2022-10-22T18:34:39;2.13;;;1.20;;
61336;SDS011;47212;41.326;2.104;2022-10-22T18:39:41;2.60;;;1.33;;
61336;SDS011;47212;41.326;2.104;2022-10-22T18:44:43;2.42;;;1.40;;
61336;SDS011;47212;41.326;2.104;2022-10-22T18:49:45;9.20;;;1.75;;
61336;SDS011;47212;41.326;2.104;2022-10-22T18:54:49;2.65;;;1.55;;
61336;SDS011;47212;41.326;2.104;2022-10-22T18:59:54;6.90;;;1.60;;
61336;SDS011;47212;41.326;2.104;2022-10-22T19:05:00;4.93;;;1.90;;
61336;SDS011;47212;41.326;2.104;2022-10-22T19:10:02;3.30;;;1.50;;
61336;SDS011;47212;41.326;2.104;2022-10-22T19:15:04;2.75;;;1.30;;
61336;SDS011;47212;41.326;2.104;2022-10-22T19:20:08;1.95;;;1.30;;
61336;SDS011;47212;41.326;2.104;2022-10-22T19:25:10;1.65;;;1.40;;
61336;SDS011;47212;41.326;2.104;2022-10-22T19:30:12;3.10;;;1.60;;
61336;SDS011;47212;41.326;2.104;2022-10-22T19:35:15;2.80;;;1.80;;
61336;SDS011;47212;41.326;2.104;2022-10-22T19:40:20;3.97;;;1.73;;
61336;SDS011;47212;41.326;2.104;2022-10-22T19:45:26;3.25;;;1.70;;
61336;SDS011;47212;41.326;2.104;2022-10-22T19:50:28;3.33;;;1.95;;
61336;SDS011;47212;41.326;2.104;2022-10-22T19:55:30;3.22;;;1.80;;
61336;SDS011;47212;41.326;2.104;2022-10-22T20:00:33;2.95;;;2.10;;
61336;SDS011;47212;41.326;2.104;2022-10-22T20:05:36;23.20;;;20.42;;
61336;SDS011;47212;41.326;2.104;2022-10-22T20:10:47;11.25;;;9.55;;
61336;SDS011;47212;41.326;2.104;2022-10-22T20:15:49;8.23;;;6.00;;
61336;SDS011;47212;41.326;2.104;2022-10-22T20:20:53;9.52;;;5.10;;
61336;SDS011;47212;41.326;2.104;2022-10-22T20:25:56;7.18;;;4.63;;
61336;SDS011;47212;41.326;2.104;2022-10-22T20:30:58;9.02;;;5.15;;
61336;SDS011;47212;41.326;2.104;2022-10-22T20:36:05;7.80;;;4.55;;
61336;SDS011;47212;41.326;2.104;2022-10-22T20:41:10;7.93;;;4.50;;
61336;SDS011;47212;41.326;2.104;2022-10-22T20:46:16;9.52;;;5.45;;
61336;SDS011;47212;41.326;2.104;2022-10-22T20:51:19;13.52;;;11.35;;
61336;SDS011;47212;41.326;2.104;2022-10-22T20:56:21;10.68;;;7.15;;
61336;SDS011;47212;41.326;2.104;2022-10-22T21:01:24;10.75;;;6.75;;
61336;SDS011;47212;41.326;2.104;2022-10-22T21:06:29;15.52;;;9.38;;
61336;SDS011;47212;41.326;2.104;2022-10-22T21:11:31;16.42;;;9.98;;
61336;SDS011;47212;41.326;2.104;2022-10-22T21:16:33;15.82;;;11.10;;
61336;SDS011;47212;41.326;2.104;2022-10-22T21:21:35;13.40;;;10.15;;
61336;SDS011;47212;41.326;2.104;2022-10-22T21:26:39;10.05;;;7.50;;
61336;SDS011;47212;41.326;2.104;2022-10-22T21:31:42;10.27;;;6.03;;
61336;SDS011;47212;41.326;2.104;2022-10-22T21:36:47;6.97;;;4.43;;
61336;SDS011;47212;41.326;2.104;2022-10-22T21:41:53;7.07;;;5.65;;
61336;SDS011;47212;41.326;2.104;2022-10-22T21:46:56;8.50;;;4.10;;
61336;SDS011;47212;41.326;2.104;2022-10-22T21:51:57;4.90;;;2.80;;
61336;SDS011;47212;41.326;2.104;2022-10-22T21:57:00;5.00;;;2.30;;
61336;SDS011;47212;41.326;2.104;2022-10-22T22:02:02;6.50;;;2.67;;
61336;SDS011;47212;41.326;2.104;2022-10-22T22:07:06;5.22;;;2.83;;
61336;SDS011;47212;41.326;2.104;2022-10-22T22:12:11;4.28;;;2.72;;
61336;SDS011;47212;41.326;2.104;2022-10-22T22:17:13;7.50;;;2.80;;
61336;SDS011;47212;41.326;2.104;2022-10-22T22:22:17;5.45;;;2.40;;
61336;SDS011;47212;41.326;2.104;2022-10-22T22:27:19;4.10;;;2.50;;
61336;SDS011;47212;41.326;2.104;2022-10-22T22:32:25;5.43;;;2.30;;
61336;SDS011;47212;41.326;2.104;2022-10-22T22:37:27;7.35;;;2.88;;
61336;SDS011;47212;41.326;2.104;2022-10-22T22:42:29;5.55;;;3.25;;
61336;SDS011;47212;41.326;2.104;2022-10-22T22:47:31;5.18;;;2.95;;
61336;SDS011;47212;41.326;2.104;2022-10-22T22:52:37;6.00;;;3.03;;
61336;SDS011;47212;41.326;2.104;2022-10-22T22:57:39;6.80;;;3.45;;
61336;SDS011;47212;41.326;2.104;2022-10-22T23:02:41;5.18;;;2.88;;
61336;SDS011;47212;41.326;2.104;2022-10-22T23:07:44;6.63;;;2.83;;
61336;SDS011;47212;41.326;2.104;2022-10-22T23:12:46;6.68;;;3.08;;
61336;SDS011;47212;41.326;2.104;2022-10-22T23:17:48;7.82;;;3.08;;
61336;SDS011;47212;41.326;2.104;2022-10-22T23:22:50;4.72;;;2.60;;
61336;SDS011;47212;41.326;2.104;2022-10-22T23:27:52;6.30;;;2.90;;
61336;SDS011;47212;41.326;2.104;2022-10-22T23:32:54;5.13;;;2.58;;
61336;SDS011;47212;41.326;2.104;2022-10-22T23:37:56;5.35;;;3.03;;
61336;SDS011;47212;41.326;2.104;2022-10-22T23:42:59;5.25;;;3.17;;
61336;SDS011;47212;41.326;2.104;2022-10-22T23:48:01;6.55;;;3.45;;
61336;SDS011;47212;41.326;2.104;2022-10-22T23:53:03;8.23;;;3.47;;
61336;SDS011;47212;41.326;2.104;2022-10-22T23:58:05;5.68;;;3.08;;
